Time;durP1;ratioP1;P1;durP2;ratioP2;P2;SDS_P1;SDS_P2;PMS_P1;PMS_P2;Temp;Humidity;BMP_temperature;BMP_pressure;BME280_temperature;BME280_humidity;BME280_pressure;Samples;Min_cycle;Max_cycle;Signal;HPM_P1;HPM_P2
2023/05/07 00:01:43;;;;;;;11.53;5.97;;;13.10;99.90;;;;;;4955399;28;20181;-85
2023/05/07 00:04:09;;;;;;;15.50;8.63;;;13.00;99.90;;;;;;4954559;28;20217;-84
2023/05/07 00:06:35;;;;;;;12.13;8.30;;;13.00;99.90;;;;;;4954536;28;20231;-84
2023/05/07 00:09:01;;;;;;;13.40;6.90;;;13.00;99.90;;;;;;4939314;28;20267;-84
2023/05/07 00:11:27;;;;;;;15.23;8.20;;;13.00;99.90;;;;;;4954655;28;20216;-84
2023/05/07 00:13:53;;;;;;;11.97;7.20;;;13.00;99.90;;;;;;4970602;28;20185;-87
2023/05/07 00:16:19;;;;;;;14.60;7.93;;;12.90;99.90;;;;;;4971457;28;20298;-84
2023/05/07 00:18:45;;;;;;;12.40;7.43;;;12.90;99.90;;;;;;4954369;28;20242;-84
2023/05/07 00:21:11;;;;;;;8.73;6.20;;;12.90;99.90;;;;;;4970587;28;20666;-84
2023/05/07 00:23:37;;;;;;;12.07;7.47;;;12.90;99.90;;;;;;4954784;28;20363;-85
2023/05/07 00:26:04;;;;;;;15.70;8.87;;;12.90;99.90;;;;;;4970256;28;20809;-85
2023/05/07 00:28:30;;;;;;;15.83;8.73;;;12.90;99.90;;;;;;4972165;28;20208;-84
2023/05/07 00:30:56;;;;;;;11.03;7.33;;;12.90;99.90;;;;;;4936690;28;20252;-85
2023/05/07 00:33:22;;;;;;;13.87;8.57;;;12.90;99.90;;;;;;4965543;28;20220;-84
2023/05/07 00:35:48;;;;;;;10.33;6.80;;;12.90;99.90;;;;;;4971295;28;20255;-84
2023/05/07 00:38:14;;;;;;;12.40;6.97;;;12.80;99.90;;;;;;4954418;28;20239;-84
2023/05/07 00:40:40;;;;;;;13.50;7.20;;;12.90;99.90;;;;;;4970970;28;20213;-84
2023/05/07 00:43:06;;;;;;;13.23;8.80;;;12.90;99.90;;;;;;4953482;28;20224;-84
2023/05/07 00:45:33;;;;;;;14.27;9.07;;;12.90;99.90;;;;;;4971306;28;20766;-85
2023/05/07 00:48:01;;;;;;;11.80;7.30;;;12.80;99.90;;;;;;4969684;28;20648;-84
2023/05/07 00:50:28;;;;;;;12.20;7.17;;;12.80;99.90;;;;;;4970692;28;20247;-84
2023/05/07 00:52:54;;;;;;;15.70;8.47;;;12.80;99.90;;;;;;4954075;28;20207;-84
2023/05/07 00:55:21;;;;;;;10.97;8.47;;;12.80;99.90;;;;;;4954186;28;20236;-84
2023/05/07 00:57:47;;;;;;;10.33;7.77;;;12.90;99.90;;;;;;4970164;28;20216;-84
2023/05/07 01:00:14;;;;;;;12.70;7.57;;;12.80;99.90;;;;;;4970428;28;20239;-84
2023/05/07 01:02:40;;;;;;;10.40;7.53;;;12.80;99.90;;;;;;4970987;28;20212;-84
2023/05/07 01:05:09;;;;;;;12.60;7.33;;;12.80;99.90;;;;;;4953612;28;20642;-85
2023/05/07 01:07:36;;;;;;;10.07;7.27;;;12.80;99.90;;;;;;4970225;28;20177;-84
2023/05/07 01:10:04;;;;;;;10.07;7.17;;;12.80;99.90;;;;;;4969473;28;20307;-85
2023/05/07 01:12:30;;;;;;;8.63;7.17;;;12.80;99.90;;;;;;4954119;28;20228;-85
2023/05/07 01:14:57;;;;;;;11.37;8.30;;;12.80;99.90;;;;;;4969443;28;20255;-84
2023/05/07 01:17:23;;;;;;;13.27;7.20;;;12.80;99.90;;;;;;4969293;28;20220;-84
2023/05/07 01:19:50;;;;;;;10.17;7.40;;;12.80;99.90;;;;;;4969469;28;20188;-87
2023/05/07 01:22:21;;;;;;;9.63;5.23;;;12.80;99.90;;;;;;4953691;28;20267;-84
2023/05/07 01:24:47;;;;;;;11.43;7.80;;;12.80;99.90;;;;;;4969415;28;20213;-84
2023/05/07 01:27:13;;;;;;;12.27;7.17;;;12.70;99.90;;;;;;4969387;28;20220;-85
2023/05/07 01:29:38;;;;;;;9.70;7.30;;;12.70;99.90;;;;;;4970849;28;20735;-84
2023/05/07 01:32:05;;;;;;;10.93;6.67;;;12.70;99.90;;;;;;4969801;28;20228;-84
2023/05/07 01:34:36;;;;;;;12.23;7.80;;;12.70;99.90;;;;;;4953715;28;20177;-85
2023/05/07 01:37:02;;;;;;;11.97;7.53;;;12.70;99.90;;;;;;4968982;28;20697;-85
2023/05/07 01:39:29;;;;;;;11.00;6.70;;;12.70;99.90;;;;;;4969959;28;20220;-86
2023/05/07 01:41:56;;;;;;;12.73;7.17;;;12.70;99.90;;;;;;4969555;28;20226;-86
2023/05/07 01:44:23;;;;;;;9.43;6.80;;;12.70;99.90;;;;;;4970687;28;20236;-84
2023/05/07 01:46:49;;;;;;;12.80;7.60;;;12.70;99.90;;;;;;4969033;28;20646;-84
2023/05/07 01:49:16;;;;;;;9.17;6.13;;;12.60;99.90;;;;;;4970161;28;20183;-85
2023/05/07 01:51:43;;;;;;;10.67;6.73;;;12.60;99.90;;;;;;4953449;28;20243;-84
2023/05/07 01:54:09;;;;;;;9.63;5.93;;;12.60;99.90;;;;;;4969329;28;20237;-85
2023/05/07 01:56:35;;;;;;;15.23;7.60;;;12.60;99.90;;;;;;4969424;28;20228;-86
2023/05/07 01:59:01;;;;;;;10.30;6.80;;;12.60;99.90;;;;;;4970350;28;20220;-84
2023/05/07 02:01:27;;;;;;;11.30;7.80;;;12.60;99.90;;;;;;4971022;28;20755;-84
2023/05/07 02:03:53;;;;;;;15.93;7.70;;;12.60;99.90;;;;;;4969576;28;20224;-84
2023/05/07 02:06:19;;;;;;;10.00;6.30;;;12.50;99.90;;;;;;4969048;28;20744;-85
2023/05/07 02:08:46;;;;;;;11.13;8.17;;;12.50;99.90;;;;;;4937099;28;20208;-84
2023/05/07 02:11:12;;;;;;;13.67;7.23;;;12.50;99.90;;;;;;4952588;28;20217;-84
2023/05/07 02:13:37;;;;;;;8.37;6.70;;;12.50;99.90;;;;;;4968850;28;20187;-84
2023/05/07 02:16:03;;;;;;;9.37;6.33;;;12.50;99.90;;;;;;4968558;28;20235;-85
2023/05/07 02:18:29;;;;;;;10.17;7.33;;;12.50;99.90;;;;;;4952543;28;20217;-84
2023/05/07 02:20:55;;;;;;;12.30;6.43;;;12.40;99.90;;;;;;4952511;28;20764;-87
2023/05/07 02:23:21;;;;;;;13.90;7.70;;;12.40;99.90;;;;;;4969901;28;20225;-84
2023/05/07 02:25:47;;;;;;;17.20;8.33;;;12.40;99.90;;;;;;4968601;28;20189;-84
2023/05/07 02:28:13;;;;;;;13.07;7.40;;;12.40;99.90;;;;;;4952940;28;20184;-85
2023/05/07 02:30:39;;;;;;;8.17;7.37;;;12.40;99.90;;;;;;4968608;28;20637;-85
2023/05/07 02:33:05;;;;;;;6.40;5.63;;;12.40;99.90;;;;;;4968663;28;20791;-85
2023/05/07 02:35:30;;;;;;;9.00;5.53;;;12.30;99.90;;;;;;4968153;28;20697;-85
2023/05/07 02:37:56;;;;;;;9.43;6.67;;;12.30;99.90;;;;;;4968150;28;20212;-87
2023/05/07 02:40:22;;;;;;;9.23;6.93;;;12.30;99.90;;;;;;4968887;28;20188;-84
2023/05/07 02:42:47;;;;;;;8.43;6.93;;;12.30;99.90;;;;;;4968399;28;20224;-84
2023/05/07 02:45:14;;;;;;;9.87;6.67;;;12.30;99.90;;;;;;4968296;28;20279;-85
2023/05/07 02:47:40;;;;;;;10.50;4.80;;;12.30;99.90;;;;;;4969404;28;20255;-84
2023/05/07 02:50:06;;;;;;;12.97;7.20;;;12.30;99.90;;;;;;4936202;28;20244;-85
2023/05/07 02:52:32;;;;;;;10.07;6.77;;;12.30;99.90;;;;;;4969714;28;20483;-84
2023/05/07 02:54:58;;;;;;;10.03;8.40;;;12.30;99.90;;;;;;4951579;28;20698;-84
2023/05/07 02:57:23;;;;;;;11.50;7.27;;;12.20;99.90;;;;;;4951769;28;20232;-85
2023/05/07 02:59:49;;;;;;;11.77;7.90;;;12.20;99.90;;;;;;4969099;28;20227;-85
2023/05/07 03:02:15;;;;;;;6.87;5.90;;;12.20;99.90;;;;;;4952690;28;20218;-86
2023/05/07 03:04:41;;;;;;;10.93;6.07;;;12.20;99.90;;;;;;4952759;28;20596;-84
2023/05/07 03:07:07;;;;;;;9.50;6.80;;;12.20;99.90;;;;;;4968984;28;20501;-85
2023/05/07 03:09:32;;;;;;;6.83;5.67;;;12.20;99.90;;;;;;4968300;28;20212;-85
2023/05/07 03:11:58;;;;;;;7.00;6.17;;;12.20;99.90;;;;;;4952097;28;20704;-84
2023/05/07 03:14:24;;;;;;;8.30;6.37;;;12.20;99.90;;;;;;4969440;28;20217;-84
2023/05/07 03:16:50;;;;;;;8.83;6.47;;;12.20;99.90;;;;;;4968022;28;20743;-84
2023/05/07 03:19:16;;;;;;;7.90;5.37;;;12.10;99.90;;;;;;4969708;28;20207;-84
2023/05/07 03:21:42;;;;;;;7.87;5.77;;;12.10;99.90;;;;;;4967824;28;20303;-88
2023/05/07 03:24:07;;;;;;;9.43;5.63;;;12.10;99.90;;;;;;4954121;28;20705;-84
2023/05/07 03:26:33;;;;;;;9.20;4.67;;;12.00;99.90;;;;;;4972763;28;20216;-83
2023/05/07 03:28:59;;;;;;;9.53;7.40;;;12.00;99.90;;;;;;4972118;28;20614;-83
2023/05/07 03:31:25;;;;;;;6.83;6.00;;;12.00;99.90;;;;;;4972304;28;20592;-85
2023/05/07 03:33:55;;;;;;;5.87;5.27;;;12.00;99.90;;;;;;4973459;28;20219;-83
2023/05/07 03:36:22;;;;;;;8.33;5.40;;;12.00;99.90;;;;;;4972664;28;20307;-87
2023/05/07 03:38:48;;;;;;;9.90;7.13;;;11.90;99.90;;;;;;4971713;28;20686;-84
2023/05/07 03:41:14;;;;;;;12.00;6.27;;;11.90;99.90;;;;;;4972600;28;20208;-84
2023/05/07 03:43:40;;;;;;;9.07;7.23;;;11.90;99.90;;;;;;4972931;28;20255;-84
2023/05/07 03:46:06;;;;;;;8.97;5.30;;;11.90;99.90;;;;;;4971608;28;20562;-84
2023/05/07 03:48:32;;;;;;;12.03;6.50;;;11.90;99.90;;;;;;4971247;28;20251;-84
2023/05/07 03:50:58;;;;;;;8.80;5.57;;;11.80;99.90;;;;;;4972498;28;20216;-85
2023/05/07 03:53:24;;;;;;;9.73;6.33;;;11.80;99.90;;;;;;4970675;28;20804;-84
2023/05/07 03:55:50;;;;;;;11.23;6.67;;;11.80;99.90;;;;;;4955189;28;20236;-84
2023/05/07 03:58:16;;;;;;;6.57;4.90;;;11.80;99.90;;;;;;4973004;28;20239;-85
2023/05/07 04:00:45;;;;;;;6.73;4.10;;;11.80;99.90;;;;;;4971765;28;20674;-86
2023/05/07 04:03:11;;;;;;;13.53;6.93;;;11.70;99.90;;;;;;4972287;28;20221;-86
2023/05/07 04:05:37;;;;;;;10.90;7.40;;;11.80;99.90;;;;;;4954894;28;20773;-86
2023/05/07 04:08:02;;;;;;;7.27;5.10;;;11.70;99.90;;;;;;4970789;28;20192;-85
2023/05/07 04:10:29;;;;;;;8.53;6.13;;;11.70;99.90;;;;;;4971355;28;20185;-84
2023/05/07 04:12:56;;;;;;;7.63;4.37;;;11.70;99.90;;;;;;4970870;28;20217;-85
2023/05/07 04:15:23;;;;;;;8.60;5.10;;;11.70;99.90;;;;;;4972202;28;20559;-84
2023/05/07 04:17:48;;;;;;;6.57;5.43;;;11.70;99.90;;;;;;4938393;28;20224;-85
2023/05/07 04:20:16;;;;;;;7.63;5.60;;;11.70;99.90;;;;;;4970771;28;20228;-87
2023/05/07 04:22:42;;;;;;;10.57;5.67;;;11.70;99.90;;;;;;4971107;28;20188;-84
2023/05/07 04:25:11;;;;;;;6.03;5.43;;;11.70;99.90;;;;;;4954512;28;20245;-85
2023/05/07 04:27:37;;;;;;;8.50;7.07;;;11.70;99.90;;;;;;4970655;28;20225;-88
2023/05/07 04:30:03;;;;;;;8.67;6.60;;;11.70;99.90;;;;;;4955114;28;20216;-84
2023/05/07 04:32:30;;;;;;;8.77;6.53;;;11.70;99.90;;;;;;4970351;28;20292;-85
2023/05/07 04:34:56;;;;;;;8.90;6.07;;;11.70;99.90;;;;;;4970985;28;20276;-85
2023/05/07 04:37:22;;;;;;;8.67;6.47;;;11.70;99.90;;;;;;4971329;28;20199;-84
2023/05/07 04:39:48;;;;;;;13.87;6.80;;;11.70;99.90;;;;;;4969837;28;20216;-84
2023/05/07 04:42:18;;;;;;;7.30;6.63;;;11.70;99.90;;;;;;4970551;28;20212;-84
2023/05/07 04:44:45;;;;;;;9.73;6.17;;;11.70;99.90;;;;;;4970807;28;20236;-85
2023/05/07 04:47:11;;;;;;;6.03;5.17;;;11.70;99.90;;;;;;4938348;28;20713;-85
2023/05/07 04:49:38;;;;;;;8.47;6.73;;;11.70;99.90;;;;;;4970663;28;20287;-85
2023/05/07 04:52:04;;;;;;;12.40;8.27;;;11.70;99.90;;;;;;4970558;28;20287;-87
2023/05/07 04:54:30;;;;;;;13.60;7.33;;;11.70;99.90;;;;;;4954240;28;20224;-85
2023/05/07 04:56:56;;;;;;;9.33;6.83;;;11.70;99.90;;;;;;4969772;28;20748;-85
2023/05/07 04:59:22;;;;;;;8.03;5.37;;;11.80;99.90;;;;;;4970827;28;20271;-83
2023/05/07 05:01:47;;;;;;;10.50;6.33;;;11.70;99.90;;;;;;4970735;28;20181;-84
2023/05/07 05:04:13;;;;;;;11.17;7.40;;;11.80;99.90;;;;;;4969908;28;20694;-84
2023/05/07 05:06:39;;;;;;;11.73;6.33;;;11.80;99.90;;;;;;4953058;28;20658;-83
2023/05/07 05:09:05;;;;;;;17.33;9.27;;;11.80;99.90;;;;;;4952564;28;20705;-83
2023/05/07 05:11:31;;;;;;;14.73;7.83;;;11.80;99.90;;;;;;4968479;28;20220;-84
2023/05/07 05:13:58;;;;;;;12.60;7.53;;;11.80;99.90;;;;;;4970197;28;20188;-85
2023/05/07 05:16:24;;;;;;;13.47;7.20;;;11.80;99.90;;;;;;4969375;28;20209;-84
2023/05/07 05:18:51;;;;;;;10.90;7.70;;;11.90;99.90;;;;;;4952733;28;20239;-86
2023/05/07 05:21:17;;;;;;;10.10;7.67;;;11.90;99.90;;;;;;4970129;28;20274;-83
2023/05/07 05:23:43;;;;;;;8.77;6.40;;;11.90;99.90;;;;;;4953221;28;20212;-85
2023/05/07 05:26:09;;;;;;;10.70;6.60;;;11.90;99.90;;;;;;4969274;28;20220;-85
2023/05/07 05:28:35;;;;;;;16.53;8.27;;;11.90;99.90;;;;;;4969979;28;20411;-85
2023/05/07 05:31:01;;;;;;;14.47;8.80;;;12.00;99.90;;;;;;4970205;28;20227;-84
2023/05/07 05:33:27;;;;;;;9.20;6.53;;;11.90;99.90;;;;;;4968494;28;20225;-84
2023/05/07 05:35:54;;;;;;;15.00;8.47;;;12.00;99.90;;;;;;4952408;28;20327;-85
2023/05/07 05:38:20;;;;;;;9.50;5.47;;;12.10;99.90;;;;;;4970017;28;20223;-85
2023/05/07 05:40:46;;;;;;;11.00;8.07;;;12.00;99.90;;;;;;4952768;28;20235;-84
2023/05/07 05:43:13;;;;;;;15.07;8.97;;;12.00;99.90;;;;;;4953145;28;20408;-84
2023/05/07 05:45:39;;;;;;;9.67;6.03;;;12.00;99.90;;;;;;4969123;28;20252;-85
2023/05/07 05:48:05;;;;;;;6.67;5.63;;;12.00;99.90;;;;;;4968476;28;20235;-84
2023/05/07 05:50:30;;;;;;;10.23;6.53;;;12.00;99.90;;;;;;4968441;28;20221;-85
2023/05/07 05:52:57;;;;;;;10.37;6.80;;;12.10;99.90;;;;;;4968869;28;20208;-86
2023/05/07 05:55:23;;;;;;;18.63;7.83;;;12.10;99.90;;;;;;4952604;28;20678;-85
2023/05/07 05:57:49;;;;;;;15.37;7.97;;;12.10;99.90;;;;;;4968770;28;20298;-86
2023/05/07 06:00:16;;;;;;;11.73;8.20;;;12.10;99.90;;;;;;4969974;28;20907;-86
2023/05/07 06:02:42;;;;;;;15.17;9.50;;;12.10;99.90;;;;;;4968352;28;20574;-84
2023/05/07 06:05:08;;;;;;;9.17;6.47;;;12.10;99.90;;;;;;4952352;28;20658;-83
2023/05/07 06:07:34;;;;;;;8.83;6.37;;;12.10;99.90;;;;;;4968691;28;20698;-84
2023/05/07 06:10:01;;;;;;;17.20;8.87;;;12.10;99.90;;;;;;4969429;28;20308;-84
2023/05/07 06:12:27;;;;;;;12.50;7.10;;;12.10;99.90;;;;;;4951453;28;20364;-83
2023/05/07 06:14:52;;;;;;;11.73;5.93;;;12.00;99.90;;;;;;4967860;28;20738;-85
2023/05/07 06:17:18;;;;;;;10.20;7.93;;;12.00;99.90;;;;;;4951592;28;20228;-84
2023/05/07 06:19:44;;;;;;;12.40;7.37;;;12.10;99.90;;;;;;4935911;28;20207;-84
2023/05/07 06:22:10;;;;;;;15.23;9.00;;;12.10;99.90;;;;;;4952116;28;20228;-84
2023/05/07 06:24:35;;;;;;;12.87;8.20;;;12.10;99.90;;;;;;4967624;28;20324;-86
2023/05/07 06:27:01;;;;;;;10.53;8.53;;;12.10;99.90;;;;;;4952527;28;20685;-85
2023/05/07 06:29:27;;;;;;;13.37;7.57;;;12.00;99.90;;;;;;4969537;28;20267;-85
2023/05/07 06:31:53;;;;;;;10.97;7.47;;;12.00;99.90;;;;;;4967901;28;20446;-84
2023/05/07 06:34:19;;;;;;;8.57;6.80;;;12.10;99.90;;;;;;4968612;28;20172;-84
2023/05/07 06:36:45;;;;;;;12.33;8.07;;;12.10;99.90;;;;;;4968371;28;20231;-85
2023/05/07 06:39:10;;;;;;;15.97;8.60;;;12.10;99.90;;;;;;4951451;28;20221;-84
2023/05/07 06:41:36;;;;;;;8.60;7.50;;;12.10;99.90;;;;;;4951620;28;20221;-85
2023/05/07 06:44:05;;;;;;;14.30;7.13;;;12.20;99.90;;;;;;4967722;28;20855;-85
2023/05/07 06:46:31;;;;;;;11.10;7.43;;;12.20;99.90;;;;;;4966531;28;20232;-85
2023/05/07 06:48:56;;;;;;;9.00;6.33;;;12.10;99.90;;;;;;4948567;28;20618;-84
2023/05/07 06:51:22;;;;;;;10.23;7.60;;;12.20;99.90;;;;;;4950119;28;20224;-84
2023/05/07 06:53:48;;;;;;;9.37;7.37;;;12.30;99.90;;;;;;4967709;28;20212;-85
2023/05/07 06:56:14;;;;;;;7.33;5.50;;;12.30;99.90;;;;;;4966289;28;20224;-86
2023/05/07 06:58:40;;;;;;;11.67;7.83;;;12.40;99.90;;;;;;4967727;28;20247;-85
2023/05/07 07:01:05;;;;;;;8.97;6.40;;;12.50;99.90;;;;;;4970013;28;20592;-85
2023/05/07 07:03:31;;;;;;;9.73;7.27;;;12.50;99.90;;;;;;4970560;28;20271;-83
2023/05/07 07:05:57;;;;;;;7.57;6.17;;;12.50;99.90;;;;;;4971348;28;20227;-85
2023/05/07 07:08:23;;;;;;;7.47;5.53;;;12.40;99.90;;;;;;4952569;28;20684;-85
2023/05/07 07:10:49;;;;;;;11.00;5.97;;;12.40;99.90;;;;;;4953816;28;20227;-85
2023/05/07 07:13:14;;;;;;;9.87;5.70;;;12.40;99.90;;;;;;4954408;28;20183;-84
2023/05/07 07:15:40;;;;;;;11.13;7.33;;;12.40;99.90;;;;;;4971096;28;20768;-85
2023/05/07 07:18:06;;;;;;;15.47;7.43;;;12.40;99.90;;;;;;4953616;28;20224;-86
2023/05/07 07:20:32;;;;;;;13.97;7.97;;;12.40;99.90;;;;;;4954627;28;20301;-85
2023/05/07 07:22:59;;;;;;;9.17;6.47;;;12.40;99.90;;;;;;4970608;28;20768;-85
2023/05/07 07:25:25;;;;;;;12.37;7.00;;;12.40;99.90;;;;;;4971295;28;20272;-84
2023/05/07 07:27:50;;;;;;;9.60;7.50;;;12.40;99.90;;;;;;4952886;28;20501;-84
2023/05/07 07:30:16;;;;;;;8.87;7.03;;;12.50;99.90;;;;;;4954695;28;20299;-86
2023/05/07 07:32:42;;;;;;;5.57;4.67;;;12.40;99.90;;;;;;4969433;28;20692;-86
2023/05/07 07:35:08;;;;;;;11.53;7.20;;;12.40;99.90;;;;;;4971673;28;20223;-85
2023/05/07 07:37:34;;;;;;;15.63;6.20;;;12.50;99.90;;;;;;4969911;28;20187;-84
2023/05/07 07:40:00;;;;;;;9.33;8.03;;;12.50;99.90;;;;;;4966841;28;20590;-88
2023/05/07 07:42:26;;;;;;;5.93;5.27;;;12.50;99.90;;;;;;4970205;28;20633;-85
2023/05/07 07:44:52;;;;;;;7.53;6.00;;;12.40;99.90;;;;;;4969589;28;20236;-85
2023/05/07 07:47:18;;;;;;;12.40;6.53;;;12.50;99.90;;;;;;4968913;28;20235;-86
2023/05/07 07:49:43;;;;;;;10.33;6.57;;;12.60;99.90;;;;;;4970353;28;20208;-86
2023/05/07 07:52:09;;;;;;;10.40;7.33;;;12.60;99.90;;;;;;4954682;28;20278;-86
2023/05/07 07:54:35;;;;;;;9.30;6.20;;;12.70;99.90;;;;;;4971542;28;20183;-87
2023/05/07 07:57:01;;;;;;;11.40;8.77;;;12.60;99.90;;;;;;4970061;28;20232;-86
2023/05/07 07:59:27;;;;;;;11.67;7.60;;;12.60;99.90;;;;;;4952780;28;20744;-86
2023/05/07 08:01:55;;;;;;;6.93;6.20;;;12.60;99.90;;;;;;4953507;28;20617;-87
2023/05/07 08:04:22;;;;;;;9.63;8.30;;;12.50;99.90;;;;;;4939079;28;20216;-85
2023/05/07 08:06:48;;;;;;;9.47;6.40;;;12.60;99.90;;;;;;4969209;28;20616;-85
2023/05/07 08:09:13;;;;;;;9.47;6.53;;;12.60;99.90;;;;;;4967963;28;20232;-85
2023/05/07 08:11:39;;;;;;;12.50;7.07;;;12.70;99.90;;;;;;4937039;28;20689;-84
2023/05/07 08:14:05;;;;;;;7.80;6.53;;;12.70;99.90;;;;;;4952979;28;20220;-85
2023/05/07 08:16:31;;;;;;;10.70;7.13;;;12.80;99.90;;;;;;4954550;28;20252;-86
2023/05/07 08:18:57;;;;;;;9.70;5.50;;;12.90;99.90;;;;;;4969137;28;20185;-87
2023/05/07 08:21:23;;;;;;;12.97;7.07;;;12.80;99.90;;;;;;4953417;28;20231;-85
2023/05/07 08:23:49;;;;;;;12.57;7.87;;;12.80;99.90;;;;;;4971357;28;20221;-84
2023/05/07 08:26:14;;;;;;;14.60;7.93;;;13.00;99.90;;;;;;4937862;28;20239;-84
2023/05/07 08:28:40;;;;;;;13.43;7.83;;;13.10;99.90;;;;;;4968622;28;20215;-85
2023/05/07 08:31:06;;;;;;;12.10;7.17;;;13.10;99.90;;;;;;4969440;28;20226;-85
2023/05/07 08:33:32;;;;;;;11.57;7.97;;;13.20;99.90;;;;;;4937969;28;20307;-86
2023/05/07 08:35:58;;;;;;;10.07;5.53;;;13.40;99.90;;;;;;4937371;28;20264;-85
2023/05/07 08:38:23;;;;;;;12.13;6.87;;;13.50;99.90;;;;;;4969022;28;20631;-85
2023/05/07 08:40:49;;;;;;;11.70;6.47;;;13.70;99.90;;;;;;4968439;28;20217;-84
2023/05/07 08:43:16;;;;;;;10.90;6.87;;;13.70;99.90;;;;;;4970199;28;20216;-85
2023/05/07 08:45:45;;;;;;;16.83;9.27;;;13.70;99.90;;;;;;4970002;28;20255;-84
2023/05/07 08:48:16;;;;;;;10.37;7.87;;;13.80;99.90;;;;;;4967190;28;20434;-84
2023/05/07 08:50:42;;;;;;;17.00;9.53;;;13.90;99.90;;;;;;4952131;28;20212;-85
2023/05/07 08:53:08;;;;;;;12.13;8.87;;;13.80;99.90;;;;;;4969753;28;20693;-85
2023/05/07 08:55:34;;;;;;;9.27;6.70;;;13.70;99.90;;;;;;4953170;28;20271;-84
2023/05/07 08:58:01;;;;;;;11.03;7.07;;;13.80;99.90;;;;;;4970428;28;20222;-84
2023/05/07 09:00:27;;;;;;;8.13;5.07;;;13.80;99.90;;;;;;4969720;28;20180;-85
2023/05/07 09:02:53;;;;;;;7.47;6.37;;;14.00;99.90;;;;;;4969644;28;20763;-85
2023/05/07 09:05:19;;;;;;;11.87;7.20;;;14.00;99.90;;;;;;4970138;28;20220;-84
2023/05/07 09:07:46;;;;;;;14.37;8.70;;;14.10;99.90;;;;;;4953099;28;20706;-84
2023/05/07 09:10:12;;;;;;;11.43;8.00;;;14.30;99.90;;;;;;4937474;28;20275;-85
2023/05/07 09:12:39;;;;;;;13.37;8.40;;;14.40;99.90;;;;;;4953501;28;20185;-85
2023/05/07 09:15:05;;;;;;;10.73;7.37;;;14.40;99.90;;;;;;4953175;28;20267;-84
2023/05/07 09:17:31;;;;;;;11.13;7.30;;;14.50;99.90;;;;;;4953303;28;20220;-85
2023/05/07 09:20:04;;;;;;;7.40;5.93;;;14.70;99.90;;;;;;4936995;28;20217;-84
2023/05/07 09:22:38;;;;;;;20.97;9.57;;;14.80;99.90;;;;;;4969817;28;20377;-83
2023/05/07 09:25:05;;;;;;;14.00;8.63;;;14.70;99.90;;;;;;4953107;28;20695;-84
2023/05/07 09:27:31;;;;;;;14.13;7.63;;;14.80;99.90;;;;;;4937255;28;20228;-85
2023/05/07 09:29:56;;;;;;;13.17;9.07;;;15.00;99.90;;;;;;4968297;28;20540;-85
2023/05/07 09:32:22;;;;;;;15.77;8.00;;;14.80;99.90;;;;;;4936520;28;20451;-84
2023/05/07 09:34:48;;;;;;;10.20;7.30;;;14.80;99.90;;;;;;4952472;28;20330;-85
2023/05/07 09:37:14;;;;;;;14.27;8.07;;;14.70;99.90;;;;;;4968673;28;20224;-83
2023/05/07 09:39:45;;;;;;;12.30;8.00;;;14.80;99.90;;;;;;4937491;28;20749;-84
2023/05/07 09:42:11;;;;;;;11.83;9.03;;;14.90;99.90;;;;;;4968558;28;20530;-84
2023/05/07 09:44:38;;;;;;;14.53;8.37;;;14.90;99.90;;;;;;4968154;28;20389;-84
2023/05/07 09:47:07;;;;;;;12.67;8.13;;;14.90;99.90;;;;;;4968005;28;20245;-85
2023/05/07 09:49:42;;;;;;;13.67;8.93;;;14.90;99.90;;;;;;4952352;28;20231;-84
2023/05/07 09:52:10;;;;;;;9.37;7.27;;;14.90;99.90;;;;;;4970289;28;20739;-86
2023/05/07 09:54:37;;;;;;;11.77;6.83;;;15.00;99.90;;;;;;4954874;28;20748;-85
2023/05/07 09:57:04;;;;;;;14.97;9.70;;;15.00;99.90;;;;;;4968789;28;20716;-85
2023/05/07 09:59:32;;;;;;;13.87;7.73;;;15.10;99.90;;;;;;4967243;28;20357;-85
2023/05/07 10:02:00;;;;;;;11.67;6.90;;;15.50;99.90;;;;;;4967949;28;20208;-85
2023/05/07 10:04:26;;;;;;;16.97;9.93;;;15.60;99.90;;;;;;4969002;28;20216;-84
2023/05/07 10:06:55;;;;;;;11.63;7.13;;;15.60;99.90;;;;;;4967623;28;20185;-85
2023/05/07 10:09:21;;;;;;;11.70;9.70;;;15.60;99.90;;;;;;4952604;28;20275;-85
2023/05/07 10:11:49;;;;;;;13.67;8.40;;;15.50;99.90;;;;;;4968009;28;20303;-85
2023/05/07 10:14:15;;;;;;;14.60;8.23;;;15.90;99.90;;;;;;4969069;28;20217;-85
2023/05/07 10:16:41;;;;;;;17.17;8.47;;;15.80;99.90;;;;;;4951487;28;20255;-85
2023/05/07 10:19:11;;;;;;;13.13;8.27;;;16.00;99.90;;;;;;4967915;28;20657;-85
2023/05/07 10:21:42;;;;;;;12.50;9.17;;;16.10;99.90;;;;;;4968175;28;20176;-84
2023/05/07 10:24:16;;;;;;;12.43;7.93;;;16.30;99.90;;;;;;4968947;28;20215;-83
2023/05/07 10:26:45;;;;;;;17.53;9.97;;;16.30;99.90;;;;;;4968717;28;20308;-88
2023/05/07 10:29:41;;;;;;;14.23;8.90;;;16.60;99.90;;;;;;4967878;28;20224;-85
2023/05/07 10:32:29;;;;;;;17.03;10.33;;;16.70;99.90;;;;;;4967938;28;20703;-84
2023/05/07 10:34:58;;;;;;;14.10;9.23;;;16.90;99.90;;;;;;4968034;28;20221;-85
2023/05/07 10:37:25;;;;;;;21.23;10.47;;;17.00;99.90;;;;;;4968264;28;20232;-86
2023/05/07 10:39:53;;;;;;;15.00;8.77;;;17.20;99.90;;;;;;4951315;28;20184;-85
2023/05/07 10:42:18;;;;;;;16.10;10.70;;;17.30;99.90;;;;;;4951319;28;20181;-84
2023/05/07 10:44:44;;;;;;;17.23;9.27;;;17.30;99.90;;;;;;4967138;28;20736;-85
2023/05/07 10:47:12;;;;;;;18.33;9.60;;;17.30;99.90;;;;;;4968118;28;20240;-87
2023/05/07 10:49:44;;;;;;;15.47;8.93;;;16.90;99.90;;;;;;4967610;28;20356;-89
2023/05/07 10:52:24;;;;;;;19.13;9.70;;;16.70;99.90;;;;;;4966938;28;20228;-85
2023/05/07 10:55:24;;;;;;;15.90;9.93;;;16.80;99.90;;;;;;4968377;28;20168;-85
2023/05/07 10:57:50;;;;;;;18.03;10.13;;;17.00;99.90;;;;;;4965411;28;20197;-86
2023/05/07 11:00:25;;;;;;;21.33;9.23;;;17.10;99.90;;;;;;4967529;28;20189;-85
2023/05/07 11:03:00;;;;;;;17.10;10.00;;;17.30;99.90;;;;;;4966832;28;20692;-84
2023/05/07 11:05:28;;;;;;;18.50;10.30;;;17.40;99.90;;;;;;4967154;28;20341;-86
2023/05/07 11:08:04;;;;;;;15.83;9.40;;;17.10;99.90;;;;;;4968248;28;20236;-86
2023/05/07 11:10:48;;;;;;;10.37;7.90;;;17.20;99.90;;;;;;4967990;28;20286;-85
2023/05/07 11:13:15;;;;;;;15.47;9.23;;;17.20;99.90;;;;;;4967222;28;20217;-87
2023/05/07 11:15:45;;;;;;;10.97;8.57;;;17.30;99.90;;;;;;4951310;28;20208;-85
2023/05/07 11:18:13;;;;;;;16.37;9.40;;;17.30;99.90;;;;;;4950837;28;20228;-85
2023/05/07 11:20:50;;;;;;;17.80;8.50;;;17.20;99.90;;;;;;4951818;28;20300;-85
2023/05/07 11:23:35;;;;;;;13.27;10.03;;;17.20;99.90;;;;;;4947372;29;20217;-83
2023/05/07 11:26:09;;;;;;;14.93;9.23;;;17.30;99.90;;;;;;4963566;28;20221;-84
2023/05/07 11:28:39;;;;;;;12.33;8.13;;;17.40;99.90;;;;;;4948263;28;20213;-84
2023/05/07 11:31:05;;;;;;;12.90;7.47;;;17.30;99.90;;;;;;4947815;28;20174;-84
2023/05/07 11:33:31;;;;;;;12.30;8.60;;;17.50;99.90;;;;;;4932511;29;20189;-85
2023/05/07 11:35:58;;;;;;;13.90;9.50;;;17.80;99.90;;;;;;4931433;29;20240;-83
2023/05/07 11:38:25;;;;;;;14.67;8.03;;;17.80;99.90;;;;;;4947231;29;20240;-83
2023/05/07 11:40:51;;;;;;;18.17;10.60;;;17.80;99.90;;;;;;4947283;29;20232;-85
2023/05/07 11:43:17;;;;;;;16.27;9.20;;;17.70;99.90;;;;;;4963214;28;20678;-84
2023/05/07 11:45:46;;;;;;;18.60;10.87;;;17.70;99.90;;;;;;4950349;29;20614;-83
2023/05/07 11:48:13;;;;;;;20.03;9.73;;;17.60;99.90;;;;;;4986479;28;20300;-83
2023/05/07 11:50:52;;;;;;;12.87;8.53;;;17.30;99.90;;;;;;4969665;28;20906;-82
2023/05/07 11:53:19;;;;;;;13.40;8.90;;;17.40;99.90;;;;;;4969589;28;20224;-82
2023/05/07 11:55:45;;;;;;;15.77;8.73;;;17.50;99.90;;;;;;4970807;28;20712;-82
2023/05/07 11:58:20;;;;;;;15.53;11.13;;;17.90;99.90;;;;;;4953728;28;20220;-83
2023/05/07 12:00:53;;;;;;;13.47;8.53;;;18.10;99.90;;;;;;4970320;28;20185;-82
2023/05/07 12:03:19;;;;;;;19.67;9.97;;;17.90;99.90;;;;;;4969804;28;20219;-83
2023/05/07 12:05:46;;;;;;;15.03;8.77;;;17.90;99.90;;;;;;4955412;28;20316;-82
2023/05/07 12:08:15;;;;;;;19.07;10.37;;;18.20;99.90;;;;;;4951488;28;20632;-82
2023/05/07 12:10:42;;;;;;;16.67;10.20;;;18.20;99.90;;;;;;4951462;28;20719;-81
2023/05/07 12:13:18;;;;;;;16.77;9.73;;;18.20;99.90;;;;;;4966229;28;20261;-82
2023/05/07 12:15:44;;;;;;;13.50;9.33;;;18.40;99.90;;;;;;4952259;28;20615;-83
2023/05/07 12:18:11;;;;;;;16.37;9.50;;;18.50;99.90;;;;;;4950193;29;20229;-83
2023/05/07 12:20:37;;;;;;;12.00;7.80;;;18.50;99.90;;;;;;4951855;28;20713;-82
2023/05/07 12:23:04;;;;;;;17.13;9.03;;;18.50;99.90;;;;;;4934017;29;20225;-82
2023/05/07 12:25:35;;;;;;;17.70;9.93;;;18.60;99.90;;;;;;4934453;29;20221;-82
2023/05/07 12:28:04;;;;;;;15.97;9.43;;;18.60;99.90;;;;;;4951110;28;20178;-83
2023/05/07 12:30:37;;;;;;;13.47;9.83;;;18.60;99.90;;;;;;4950235;29;20253;-83
2023/05/07 12:33:03;;;;;;;14.87;8.40;;;18.30;99.90;;;;;;4951591;28;20729;-83
2023/05/07 12:35:29;;;;;;;16.40;10.17;;;18.10;99.90;;;;;;4933679;29;20221;-83
2023/05/07 12:37:59;;;;;;;16.53;9.33;;;18.30;99.90;;;;;;4966312;28;20213;-83